createdAt,value
2022-09-04T00:01:28.692Z,3.10
2022-09-04T00:04:01.823Z,2.87
2022-09-04T00:06:38.402Z,2.90
2022-09-04T00:09:13.924Z,2.87
2022-09-04T00:11:50.251Z,3.23
2022-09-04T00:14:21.817Z,2.80
2022-09-04T00:16:57.499Z,2.90
2022-09-04T00:19:34.174Z,2.20
2022-09-04T00:22:07.223Z,2.77
2022-09-04T00:24:38.878Z,3.00
2022-09-04T00:27:13.350Z,3.10
2022-09-04T00:29:49.086Z,3.17
2022-09-04T00:32:24.923Z,2.93
2022-09-04T00:35:06.157Z,2.67
2022-09-04T00:37:38.603Z,3.00
2022-09-04T00:40:10.325Z,2.80
2022-09-04T00:43:06.671Z,2.47
2022-09-04T00:45:48.025Z,2.67
2022-09-04T00:48:28.531Z,2.23
2022-09-04T00:51:21.669Z,2.50
2022-09-04T00:54:27.165Z,2.37
2022-09-04T00:57:42.169Z,2.80
2022-09-04T01:00:15.457Z,2.57
2022-09-04T01:03:02.416Z,2.57
2022-09-04T01:05:41.052Z,2.20
2022-09-04T01:08:20.562Z,2.50
2022-09-04T01:10:58.987Z,2.50
2022-09-04T01:13:34.136Z,2.13
2022-09-04T01:16:11.250Z,2.30
2022-09-04T01:18:46.009Z,2.13
2022-09-04T01:21:57.750Z,2.30
2022-09-04T01:24:43.958Z,2.37
2022-09-04T01:27:17.134Z,2.20
2022-09-04T01:29:54.512Z,2.63
2022-09-04T01:32:32.825Z,2.47
2022-09-04T01:35:10.219Z,2.33
2022-09-04T01:37:47.612Z,2.47
2022-09-04T01:40:35.143Z,2.40
2022-09-04T01:43:08.596Z,2.60
2022-09-04T01:46:10.229Z,2.20
2022-09-04T01:48:45.213Z,2.37
2022-09-04T01:51:21.869Z,2.60
2022-09-04T01:53:59.803Z,2.00
2022-09-04T01:56:36.292Z,2.17
2022-09-04T01:59:12.866Z,2.20
2022-09-04T02:01:48.255Z,2.20
2022-09-04T02:04:23.183Z,2.50
2022-09-04T02:06:58.974Z,2.20
2022-09-04T02:09:36.310Z,1.93
2022-09-04T02:12:12.140Z,2.73
2022-09-04T02:14:54.439Z,2.03
2022-09-04T02:17:32.706Z,2.47
2022-09-04T02:20:11.153Z,2.20
2022-09-04T02:22:45.245Z,2.30
2022-09-04T02:25:22.306Z,2.47
2022-09-04T02:27:59.370Z,2.33
2022-09-04T02:30:32.204Z,2.50
2022-09-04T02:33:06.254Z,2.30
2022-09-04T02:35:40.211Z,2.40
2022-09-04T02:38:18.399Z,2.80
2022-09-04T02:40:52.216Z,2.47
2022-09-04T02:43:35.798Z,2.70
2022-09-04T02:46:11.471Z,2.43
2022-09-04T02:48:53.070Z,2.30
2022-09-04T02:51:30.045Z,2.40
2022-09-04T02:54:04.041Z,2.20
2022-09-04T02:56:43.822Z,2.67
2022-09-04T02:59:28.737Z,2.23
2022-09-04T03:02:00.666Z,2.43
2022-09-04T03:04:36.948Z,2.23
2022-09-04T03:07:10.959Z,1.90
2022-09-04T03:09:44.507Z,2.53
2022-09-04T03:12:27.229Z,1.90
2022-09-04T03:15:03.341Z,2.10
2022-09-04T03:17:38.269Z,1.90
2022-09-04T03:20:13.271Z,2.40
2022-09-04T03:22:46.336Z,1.90
2022-09-04T03:25:53.951Z,1.90
2022-09-04T03:28:29.350Z,2.10
2022-09-04T03:30:59.891Z,1.90
2022-09-04T03:33:35.655Z,2.10
2022-09-04T03:36:08.600Z,2.13
2022-09-04T03:38:45.424Z,1.90
2022-09-04T03:41:30.268Z,2.37
2022-09-04T03:44:07.800Z,2.07
2022-09-04T03:46:49.271Z,2.20
2022-09-04T03:49:25.243Z,2.10
2022-09-04T03:52:01.458Z,2.00
2022-09-04T03:54:43.870Z,2.10
2022-09-04T03:57:34.798Z,2.23
2022-09-04T04:00:11.484Z,2.00
2022-09-04T04:02:59.096Z,2.17
2022-09-04T04:05:57.870Z,2.10
2022-09-04T04:08:56.599Z,2.40
2022-09-04T04:11:43.704Z,2.30
2022-09-04T04:14:36.024Z,2.57
2022-09-04T04:17:17.567Z,2.30
2022-09-04T04:20:04.110Z,2.70
2022-09-04T04:22:56.255Z,2.53
2022-09-04T04:25:52.633Z,2.60
2022-09-04T04:28:36.840Z,2.97
2022-09-04T04:31:14.528Z,2.27
2022-09-04T04:33:51.474Z,2.57
2022-09-04T04:36:29.242Z,2.10
2022-09-04T04:39:09.920Z,2.30
2022-09-04T04:42:06.681Z,2.40
2022-09-04T04:45:12.399Z,2.30
2022-09-04T04:48:24.932Z,2.73
2022-09-04T04:51:05.430Z,2.17
2022-09-04T04:53:37.611Z,2.30
2022-09-04T04:56:15.406Z,2.20
2022-09-04T04:58:54.909Z,2.10
2022-09-04T05:01:37.222Z,2.17
2022-09-04T05:04:12.664Z,1.90
2022-09-04T05:06:46.276Z,2.40
2022-09-04T05:09:21.965Z,2.83
2022-09-04T05:11:58.016Z,2.30
2022-09-04T05:14:36.879Z,2.67
2022-09-04T05:17:17.347Z,2.80
2022-09-04T05:19:50.926Z,2.33
2022-09-04T05:22:25.673Z,2.90
2022-09-04T05:25:01.551Z,2.67
2022-09-04T05:27:43.206Z,2.20
2022-09-04T05:30:15.900Z,2.60
2022-09-04T05:32:53.195Z,2.53
2022-09-04T05:35:31.906Z,2.80
2022-09-04T05:38:10.014Z,2.27
2022-09-04T05:40:52.021Z,2.60
2022-09-04T05:43:32.372Z,2.27
2022-09-04T05:46:06.598Z,2.10
2022-09-04T05:48:43.832Z,1.80
2022-09-04T05:51:40.417Z,2.47
2022-09-04T05:54:38.432Z,2.23
2022-09-04T05:57:19.166Z,2.00
2022-09-04T06:00:11.189Z,2.07
2022-09-04T06:03:12.143Z,2.03
2022-09-04T06:05:46.257Z,2.33
2022-09-04T06:08:28.671Z,1.57
2022-09-04T06:11:05.229Z,2.53
2022-09-04T06:13:46.867Z,2.40
2022-09-04T06:16:34.548Z,2.20
2022-09-04T06:19:32.804Z,2.33
2022-09-04T06:22:33.613Z,2.50
2022-09-04T06:25:39.004Z,2.60
2022-09-04T06:28:28.259Z,2.63
2022-09-04T06:31:01.724Z,2.33
2022-09-04T06:33:57.068Z,2.70
2022-09-04T06:36:52.725Z,2.97
2022-09-04T06:40:01.053Z,3.07
2022-09-04T06:42:37.230Z,3.10
2022-09-04T06:45:17.236Z,3.47
2022-09-04T06:47:56.968Z,3.10
2022-09-04T06:50:32.955Z,2.90
2022-09-04T06:53:09.647Z,3.00
2022-09-04T06:55:44.637Z,3.10
2022-09-04T06:58:43.222Z,3.27
2022-09-04T07:01:16.641Z,3.20
2022-09-04T07:03:58.063Z,3.20
2022-09-04T07:06:44.376Z,2.70
2022-09-04T07:09:17.924Z,3.00
2022-09-04T07:12:04.235Z,2.70
2022-09-04T07:14:45.332Z,3.10
2022-09-04T07:17:20.442Z,3.00
2022-09-04T07:20:21.097Z,3.00
2022-09-04T07:23:23.494Z,2.90
2022-09-04T07:26:10.956Z,3.40
2022-09-04T07:29:25.773Z,2.80
2022-09-04T07:32:01.454Z,2.70
2022-09-04T07:34:39.517Z,3.20
2022-09-04T07:37:15.757Z,2.87
2022-09-04T07:39:50.264Z,2.83
2022-09-04T07:42:28.053Z,3.50
2022-09-04T07:45:04.745Z,2.90
2022-09-04T07:47:36.169Z,2.90
2022-09-04T07:50:11.309Z,3.47
2022-09-04T07:52:50.882Z,3.47
2022-09-04T07:55:28.617Z,3.30
2022-09-04T07:58:38.830Z,3.13
2022-09-04T08:01:27.323Z,2.93
2022-09-04T08:04:12.544Z,2.90
2022-09-04T08:06:50.405Z,2.60
2022-09-04T08:09:46.933Z,3.90
2022-09-04T08:12:45.481Z,3.20
2022-09-04T08:15:35.475Z,3.00
2022-09-04T08:18:21.810Z,3.10
2022-09-04T08:20:56.936Z,3.10
2022-09-04T08:23:47.562Z,3.30
2022-09-04T08:26:21.498Z,3.17
2022-09-04T08:29:15.798Z,3.30
2022-09-04T08:31:55.595Z,3.43
2022-09-04T08:35:04.089Z,3.60
2022-09-04T08:37:38.721Z,3.53
2022-09-04T08:40:27.395Z,3.23
2022-09-04T08:43:20.488Z,3.10
2022-09-04T08:46:25.862Z,2.97
2022-09-04T08:49:14.266Z,2.90
2022-09-04T08:52:27.209Z,3.80
2022-09-04T08:55:35.710Z,3.00
2022-09-04T08:58:22.986Z,3.30
2022-09-04T09:01:11.043Z,2.27
2022-09-04T09:03:57.973Z,2.23
2022-09-04T09:07:04.059Z,2.80
2022-09-04T09:09:52.512Z,2.90
2022-09-04T09:12:51.369Z,3.97
2022-09-04T09:15:41.512Z,3.00
2022-09-04T09:18:35.827Z,3.23
2022-09-04T09:21:09.625Z,2.67
2022-09-04T09:24:08.512Z,3.50
2022-09-04T09:26:53.081Z,2.90
2022-09-04T09:29:41.886Z,3.00
2022-09-04T09:32:46.658Z,3.30
2022-09-04T09:35:56.094Z,2.50
2022-09-04T09:38:44.803Z,2.63
2022-09-04T09:41:38.916Z,2.70
2022-09-04T09:45:06.315Z,2.67
2022-09-04T09:47:50.091Z,2.60
2022-09-04T09:50:55.813Z,2.53
2022-09-04T09:53:46.324Z,2.77
2022-09-04T09:56:53.730Z,2.70
2022-09-04T09:59:50.993Z,2.33
2022-09-04T10:03:08.474Z,2.63
2022-09-04T10:06:13.380Z,2.33
2022-09-04T10:09:22.700Z,2.30
2022-09-04T10:12:28.387Z,2.27
2022-09-04T10:15:18.307Z,2.97
2022-09-04T10:18:06.810Z,2.67
2022-09-04T10:21:13.024Z,3.03
2022-09-04T10:24:11.585Z,2.23
2022-09-04T10:26:53.409Z,2.60
2022-09-04T10:29:36.835Z,2.50
2022-09-04T10:32:54.523Z,2.70
2022-09-04T10:35:25.490Z,3.20
2022-09-04T10:38:12.589Z,3.40
2022-09-04T10:40:54.460Z,2.20
2022-09-04T10:43:48.536Z,2.40
2022-09-04T10:46:26.392Z,2.63
2022-09-04T10:49:30.796Z,2.63
2022-09-04T10:52:17.335Z,3.00
2022-09-04T10:55:04.742Z,3.00
2022-09-04T10:58:01.670Z,3.00
2022-09-04T11:00:37.334Z,3.10
2022-09-04T11:03:38.264Z,3.57
2022-09-04T11:06:36.173Z,3.57
2022-09-04T11:09:24.482Z,2.47
2022-09-04T11:12:14.312Z,2.67
2022-09-04T11:15:15.299Z,3.30
2022-09-04T11:18:05.366Z,3.37
2022-09-04T11:20:57.592Z,2.87
2022-09-04T11:24:14.166Z,2.80
2022-09-04T11:27:15.868Z,3.00
2022-09-04T11:29:55.963Z,3.00
2022-09-04T11:32:52.294Z,2.40
2022-09-04T11:35:50.903Z,3.17
2022-09-04T11:38:43.949Z,2.43
2022-09-04T11:42:03.921Z,3.13
2022-09-04T11:45:04.663Z,2.93
2022-09-04T11:48:20.318Z,2.70
2022-09-04T11:51:34.505Z,2.93
2022-09-04T11:54:39.270Z,2.80
2022-09-04T11:57:14.704Z,2.88
2022-09-04T12:00:07.436Z,2.20
2022-09-04T12:03:15.998Z,2.70
2022-09-04T12:06:08.368Z,3.00
2022-09-04T12:09:18.855Z,2.60
2022-09-04T12:12:22.777Z,3.57
2022-09-04T12:15:22.615Z,3.00
2022-09-04T12:18:23.598Z,3.50
2022-09-04T12:21:20.381Z,3.00
2022-09-04T12:24:31.706Z,2.93
2022-09-04T12:27:27.317Z,3.63
2022-09-04T12:30:14.014Z,3.73
2022-09-04T12:33:03.686Z,3.70
2022-09-04T12:36:19.635Z,3.53
2022-09-04T12:39:25.152Z,3.13
2022-09-04T12:41:59.818Z,3.73
2022-09-04T12:44:38.321Z,3.53
2022-09-04T12:47:16.754Z,4.00
2022-09-04T12:50:11.342Z,3.67
2022-09-04T12:52:51.108Z,2.60
2022-09-04T12:55:24.662Z,2.53
2022-09-04T12:58:07.533Z,2.83
2022-09-04T13:00:48.456Z,2.63
2022-09-04T13:03:24.422Z,3.53
2022-09-04T13:06:04.370Z,4.10
2022-09-04T13:08:47.450Z,3.40
2022-09-04T13:11:25.408Z,3.43
2022-09-04T13:14:08.780Z,3.00
2022-09-04T13:16:42.511Z,3.10
2022-09-04T13:19:16.969Z,2.80
2022-09-04T13:21:57.027Z,3.17
2022-09-04T13:24:39.943Z,2.90
2022-09-04T13:27:36.927Z,2.70
2022-09-04T13:30:08.892Z,2.90
2022-09-04T13:32:48.978Z,2.23
2022-09-04T13:35:25.205Z,3.70
2022-09-04T13:38:11.642Z,2.93
2022-09-04T13:41:00.913Z,2.33
2022-09-04T13:44:00.697Z,2.60
2022-09-04T13:46:36.461Z,2.50
2022-09-04T13:49:08.456Z,2.50
2022-09-04T13:51:39.568Z,2.20
2022-09-04T13:54:13.668Z,2.40
2022-09-04T13:56:48.066Z,2.60
2022-09-04T13:59:18.811Z,2.27
2022-09-04T14:01:52.118Z,2.20
2022-09-04T14:04:26.532Z,2.63
2022-09-04T14:07:00.088Z,2.80
2022-09-04T14:09:31.443Z,2.87
2022-09-04T14:12:21.000Z,2.60
2022-09-04T14:15:28.718Z,2.87
2022-09-04T14:18:05.850Z,2.70
2022-09-04T14:20:41.578Z,2.60
2022-09-04T14:23:20.525Z,3.03
2022-09-04T14:25:53.886Z,2.40
2022-09-04T14:28:25.190Z,3.20
2022-09-04T14:31:00.784Z,2.70
2022-09-04T14:33:40.191Z,2.67
2022-09-04T14:36:17.643Z,2.83
2022-09-04T14:39:21.628Z,2.43
2022-09-04T14:41:59.815Z,2.83
2022-09-04T14:44:42.660Z,2.27
2022-09-04T14:47:23.076Z,2.87
2022-09-04T14:49:55.777Z,2.87
2022-09-04T14:52:27.341Z,2.47
2022-09-04T14:54:58.734Z,2.20
2022-09-04T14:57:34.668Z,2.97
2022-09-04T15:00:11.700Z,2.40
2022-09-04T15:02:43.866Z,2.60
2022-09-04T15:05:22.094Z,2.83
2022-09-04T15:07:55.933Z,2.30
2022-09-04T15:10:28.905Z,2.10
2022-09-04T15:13:06.646Z,2.43
2022-09-04T15:15:38.799Z,2.50
2022-09-04T15:18:16.575Z,2.60
2022-09-04T15:20:54.086Z,2.60
2022-09-04T15:23:28.140Z,2.73
2022-09-04T15:26:06.002Z,2.83
2022-09-04T15:28:43.182Z,3.33
2022-09-04T15:31:16.894Z,3.30
2022-09-04T15:33:48.327Z,3.00
2022-09-04T15:36:21.841Z,3.73
2022-09-04T15:38:53.166Z,4.13
2022-09-04T15:41:28.399Z,4.40
2022-09-04T15:44:02.446Z,5.20
2022-09-04T15:46:40.574Z,4.30
2022-09-04T15:49:31.839Z,3.80
2022-09-04T15:52:14.211Z,3.40
2022-09-04T15:54:57.330Z,3.27
2022-09-04T15:57:30.457Z,3.13
2022-09-04T16:00:03.873Z,3.17
2022-09-04T16:02:50.434Z,3.30
2022-09-04T16:05:24.055Z,3.40
2022-09-04T16:08:03.207Z,3.00
2022-09-04T16:10:44.885Z,3.10
2022-09-04T16:13:35.081Z,2.73
2022-09-04T16:16:10.281Z,3.17
2022-09-04T16:18:52.178Z,3.00
2022-09-04T16:21:31.503Z,2.63
2022-09-04T16:24:09.186Z,2.50
2022-09-04T16:26:38.813Z,2.87
2022-09-04T16:29:10.456Z,2.60
2022-09-04T16:31:40.625Z,3.00
2022-09-04T16:34:22.183Z,2.67
2022-09-04T16:37:01.928Z,2.90
2022-09-04T16:39:43.552Z,3.27
2022-09-04T16:42:19.970Z,2.83
2022-09-04T16:44:54.868Z,3.23
2022-09-04T16:47:29.377Z,3.03
2022-09-04T16:50:01.515Z,3.40
2022-09-04T16:52:38.205Z,3.40
2022-09-04T16:55:17.383Z,3.17
2022-09-04T16:57:53.929Z,3.10
2022-09-04T17:00:24.920Z,3.20
2022-09-04T17:02:57.154Z,3.17
2022-09-04T17:05:35.175Z,2.93
2022-09-04T17:08:11.197Z,3.13
2022-09-04T17:10:46.776Z,3.13
2022-09-04T17:13:21.301Z,3.63
2022-09-04T17:16:00.332Z,3.10
2022-09-04T17:18:30.469Z,3.20
2022-09-04T17:24:04.568Z,3.30
2022-09-04T17:28:59.189Z,3.80
2022-09-04T17:29:12.872Z,3.80
2022-09-04T17:29:49.393Z,3.70
2022-09-04T17:33:46.145Z,3.57
2022-09-04T17:40:36.393Z,3.50
2022-09-04T17:40:51.771Z,3.40
2022-09-04T17:41:38.292Z,3.40
2022-09-04T17:44:26.399Z,3.13
2022-09-04T17:47:04.962Z,3.27
2022-09-04T17:49:38.263Z,3.30
2022-09-04T17:52:08.860Z,3.53
2022-09-04T17:54:40.759Z,3.50
2022-09-04T17:57:14.152Z,3.07
2022-09-04T17:59:50.683Z,3.80
2022-09-04T18:02:25.461Z,3.30
2022-09-04T18:05:00.710Z,3.50
2022-09-04T18:08:07.409Z,3.57
2022-09-04T18:10:34.027Z,3.80
2022-09-04T18:13:28.389Z,3.93
2022-09-04T18:16:12.683Z,3.60
2022-09-04T18:18:44.764Z,4.80
2022-09-04T18:21:18.029Z,3.60
2022-09-04T18:23:57.630Z,5.20
2022-09-04T18:26:41.077Z,3.90
2022-09-04T18:33:39.899Z,4.03
2022-09-04T18:37:07.099Z,3.47
2022-09-04T18:37:17.222Z,3.23
2022-09-04T18:38:19.839Z,3.77
2022-09-04T18:46:06.599Z,3.70
2022-09-04T18:50:20.883Z,4.10
2022-09-04T18:50:35.451Z,3.60
2022-09-04T18:50:51.324Z,3.87
2022-09-04T18:52:30.482Z,3.60
2022-09-04T18:55:04.081Z,3.60
2022-09-04T18:57:35.504Z,3.53
2022-09-04T19:00:10.887Z,3.60
2022-09-04T19:02:53.050Z,3.77
2022-09-04T19:05:45.118Z,4.03
2022-09-04T19:08:19.822Z,3.70
2022-09-04T19:10:54.341Z,3.53
2022-09-04T19:13:28.174Z,3.70
2022-09-04T19:16:03.416Z,3.77
2022-09-04T19:18:44.090Z,3.83
2022-09-04T19:21:38.369Z,3.50
2022-09-04T19:24:39.133Z,4.03
2022-09-04T19:27:27.020Z,3.93
2022-09-04T19:30:18.445Z,3.80
2022-09-04T19:33:09.911Z,4.13
2022-09-04T19:35:45.588Z,3.67
2022-09-04T19:43:30.461Z,3.80
2022-09-04T19:46:08.069Z,3.80
2022-09-04T19:46:17.544Z,3.77
2022-09-04T19:47:09.172Z,4.10
2022-09-04T19:53:17.941Z,4.00
2022-09-04T19:53:30.533Z,3.73
2022-09-04T19:55:49.241Z,3.90
2022-09-04T19:58:20.278Z,4.03
2022-09-04T20:00:53.107Z,4.30
2022-09-04T20:03:29.708Z,4.30
2022-09-04T20:06:20.255Z,4.23
2022-09-04T20:09:00.396Z,4.27
2022-09-04T20:11:35.684Z,4.50
2022-09-04T20:14:14.446Z,5.13
2022-09-04T20:16:50.668Z,6.20
2022-09-04T20:19:28.464Z,4.83
2022-09-04T20:22:01.903Z,5.43
2022-09-04T20:24:39.779Z,4.93
2022-09-04T20:27:16.008Z,5.30
2022-09-04T20:29:54.551Z,5.00
2022-09-04T20:32:26.828Z,5.10
2022-09-04T20:35:13.028Z,5.70
2022-09-04T20:37:45.595Z,5.17
2022-09-04T20:40:27.244Z,5.13
2022-09-04T20:43:18.055Z,5.47
2022-09-04T20:51:55.296Z,4.30
2022-09-04T20:52:58.851Z,5.63
2022-09-04T20:53:07.403Z,4.63
2022-09-04T20:54:38.876Z,5.67
2022-09-04T21:01:43.080Z,5.10
2022-09-04T21:03:11.773Z,5.77
2022-09-04T21:03:19.365Z,4.93
2022-09-04T21:05:59.999Z,5.53
2022-09-04T21:08:41.524Z,5.90
2022-09-04T21:11:41.143Z,5.37
2022-09-04T21:14:07.997Z,5.40
2022-09-04T21:16:52.540Z,5.60
2022-09-04T21:19:53.088Z,5.30
2022-09-04T21:22:33.049Z,6.13
2022-09-04T21:25:28.877Z,5.60
2022-09-04T21:28:23.204Z,5.40
2022-09-04T21:31:13.591Z,5.53
2022-09-04T21:33:51.349Z,6.00
2022-09-04T21:36:27.667Z,5.80
2022-09-04T21:39:25.904Z,5.77
2022-09-04T21:42:17.343Z,5.50
2022-09-04T21:45:14.348Z,5.70
2022-09-04T21:48:02.075Z,6.40
2022-09-04T21:50:45.515Z,6.40
2022-09-04T21:53:34.517Z,5.83
2022-09-04T21:58:41.219Z,6.47
2022-09-04T22:02:46.280Z,6.60
2022-09-04T22:02:52.570Z,6.17
2022-09-04T22:05:27.970Z,5.97
2022-09-04T22:12:25.805Z,5.10
2022-09-04T22:13:37.961Z,5.20
2022-09-04T22:14:04.191Z,5.90
2022-09-04T22:16:45.529Z,5.70
2022-09-04T22:19:29.388Z,5.83
2022-09-04T22:22:15.128Z,5.97
2022-09-04T22:25:10.415Z,5.40
2022-09-04T22:28:15.038Z,5.63
2022-09-04T22:31:01.341Z,6.33
2022-09-04T22:34:14.896Z,4.90
2022-09-04T22:37:36.736Z,5.50
2022-09-04T22:40:30.032Z,6.37
2022-09-04T22:43:11.628Z,5.73
2022-09-04T22:46:03.779Z,5.73
2022-09-04T22:49:12.531Z,6.23
2022-09-04T22:52:21.725Z,5.90
2022-09-04T22:55:39.499Z,6.30
2022-09-04T22:58:24.543Z,6.20
2022-09-04T23:01:15.986Z,6.10
2022-09-04T23:03:59.310Z,6.97
2022-09-04T23:11:46.674Z,6.37
2022-09-04T23:13:54.789Z,7.20
2022-09-04T23:14:02.710Z,6.63
2022-09-04T23:16:31.343Z,6.70
2022-09-04T23:24:41.121Z,7.10
2022-09-04T23:26:38.383Z,7.03
2022-09-04T23:26:44.141Z,7.43
2022-09-04T23:28:28.107Z,7.33
2022-09-04T23:31:10.371Z,7.27
2022-09-04T23:34:12.608Z,8.00
2022-09-04T23:37:23.493Z,6.30
2022-09-04T23:40:05.125Z,7.67
2022-09-04T23:42:46.046Z,7.83
2022-09-04T23:45:33.553Z,7.53
2022-09-04T23:48:39.377Z,7.20
2022-09-04T23:51:14.065Z,7.27
2022-09-04T23:53:49.700Z,7.60
2022-09-04T23:56:26.746Z,7.50
2022-09-04T23:59:28.949Z,7.80
